Time;durP1;ratioP1;P1;durP2;ratioP2;P2;SDS_P1;SDS_P2;PMS_P1;PMS_P2;Temp;Humidity;BMP_temperature;BMP_pressure;BME280_temperature;BME280_humidity;BME280_pressure;Samples;Min_cycle;Max_cycle;Signal;HPM_P1;HPM_P2
2022/02/14 00:00:49;;;;;;;13.15;6.10;;;;;;;4.67;79.87;99651.06;5110349;28;20512;-79
2022/02/14 00:03:15;;;;;;;16.85;6.10;;;;;;;4.70;79.83;99645.47;5112290;28;20054;-78
2022/02/14 00:05:41;;;;;;;13.30;6.28;;;;;;;4.53;79.75;99612.75;5110757;28;20500;-79
2022/02/14 00:08:07;;;;;;;15.85;6.20;;;;;;;4.65;79.61;99627.41;5112675;28;20039;-78
2022/02/14 00:10:33;;;;;;;12.27;6.47;;;;;;;4.62;79.55;99609.22;5112337;28;20031;-79
2022/02/14 00:12:58;;;;;;;12.73;5.90;;;;;;;4.59;79.41;99587.56;5095364;28;20534;-78
2022/02/14 00:15:24;;;;;;;12.95;6.15;;;;;;;4.68;79.28;99591.06;5113161;28;20040;-79
2022/02/14 00:17:50;;;;;;;11.35;6.13;;;;;;;4.69;79.70;99598.03;5096272;28;20114;-79
2022/02/14 00:20:16;;;;;;;9.68;6.00;;;;;;;4.67;79.06;99581.50;5096749;28;20035;-78
2022/02/14 00:22:42;;;;;;;13.48;6.18;;;;;;;4.77;79.06;99590.16;5115280;28;20403;-79
2022/02/14 00:25:08;;;;;;;15.43;6.30;;;;;;;4.69;78.89;99559.22;5117557;28;20382;-78
2022/02/14 00:27:33;;;;;;;13.68;5.72;;;;;;;4.69;78.95;99564.50;5099898;28;20088;-79
2022/02/14 00:29:59;;;;;;;16.37;5.60;;;;;;;4.54;79.06;99540.44;5099557;28;20459;-78
2022/02/14 00:32:25;;;;;;;11.23;5.38;;;;;;;4.74;78.95;99567.50;5116890;28;20026;-78
2022/02/14 00:34:51;;;;;;;15.13;6.53;;;;;;;4.63;78.89;99552.69;5099849;28;20035;-79
2022/02/14 00:37:17;;;;;;;12.57;6.60;;;;;;;4.58;78.98;99546.22;5118361;28;20046;-79
2022/02/14 00:39:43;;;;;;;10.70;5.93;;;;;;;4.60;79.12;99549.56;5116754;28;20027;-79
2022/02/14 00:42:09;;;;;;;13.30;5.60;;;;;;;4.60;78.88;99555.66;5118277;28;20061;-78
2022/02/14 00:44:34;;;;;;;13.33;6.07;;;;;;;4.56;79.13;99545.53;5099345;28;20043;-79
2022/02/14 00:47:00;;;;;;;13.23;5.32;;;;;;;4.72;79.00;99571.28;5098985;28;20217;-79
2022/02/14 00:49:25;;;;;;;9.30;5.43;;;;;;;4.70;78.64;99549.44;5098567;28;20047;-78
2022/02/14 00:51:50;;;;;;;19.57;6.07;;;;;;;4.69;78.70;99543.34;5116337;28;20040;-78
2022/02/14 00:54:16;;;;;;;10.43;5.57;;;;;;;4.61;78.89;99527.41;5100330;28;20027;-79
2022/02/14 00:56:41;;;;;;;13.53;5.10;;;;;;;4.72;78.71;99537.75;5119995;28;20036;-79
2022/02/14 00:59:07;;;;;;;10.38;5.85;;;;;;;4.63;78.72;99518.34;5118449;28;20035;-79
2022/02/14 01:01:32;;;;;;;13.13;5.87;;;;;;;4.59;78.50;99505.59;5101599;28;20070;-79
2022/02/14 01:03:58;;;;;;;12.17;5.50;;;;;;;4.70;78.46;99523.84;5117653;28;20031;-78
2022/02/14 01:06:25;;;;;;;12.30;5.28;;;;;;;4.52;78.54;99488.66;5100564;28;20031;-79
2022/02/14 01:08:51;;;;;;;10.70;5.95;;;;;;;4.54;78.82;99499.94;5118721;28;20031;-78
2022/02/14 01:11:17;;;;;;;12.02;5.75;;;;;;;4.65;78.89;99528.75;5099996;28;20089;-79
2022/02/14 01:13:42;;;;;;;14.48;5.55;;;;;;;4.57;78.62;99497.00;5118065;28;20435;-79
2022/02/14 01:16:07;;;;;;;9.67;5.30;;;;;;;4.69;78.46;99510.78;5117843;28;20055;-79
2022/02/14 01:18:33;;;;;;;16.20;6.00;;;;;;;4.56;78.48;99480.28;5116759;28;20039;-78
2022/02/14 01:20:58;;;;;;;15.20;5.93;;;;;;;4.53;78.37;99480.59;5099987;28;20085;-80
2022/02/14 01:23:23;;;;;;;11.07;5.17;;;;;;;4.53;78.62;99483.25;5118597;28;20027;-79
2022/02/14 01:25:49;;;;;;;13.50;5.47;;;;;;;4.44;78.84;99479.69;5099469;28;20046;-80
2022/02/14 01:28:15;;;;;;;13.18;5.38;;;;;;;4.54;78.92;99508.72;5099966;28;20031;-79
2022/02/14 01:30:40;;;;;;;8.35;4.97;;;;;;;4.43;79.03;99491.28;5116232;28;20102;-78
2022/02/14 01:33:06;;;;;;;13.40;5.85;;;;;;;4.41;79.18;99495.88;5098508;28;20031;-78
2022/02/14 01:35:31;;;;;;;16.13;6.17;;;;;;;4.40;79.43;99501.31;5098588;28;20519;-78
2022/02/14 01:37:57;;;;;;;10.65;4.78;;;;;;;4.26;79.55;99483.34;5098952;28;20031;-78
2022/02/14 01:40:22;;;;;;;14.07;7.43;;;;;;;4.42;79.68;99517.84;5098484;28;20593;-80
2022/02/14 01:42:48;;;;;;;13.80;5.72;;;;;;;4.28;79.69;99494.59;5115799;28;20028;-79
2022/02/14 01:45:13;;;;;;;10.88;5.90;;;;;;;4.29;80.06;99504.22;5097303;28;20023;-79
2022/02/14 01:47:43;;;;;;;15.10;6.53;;;;;;;4.13;79.88;99481.94;5114409;28;20032;-79
2022/02/14 01:50:13;;;;;;;10.35;5.30;;;;;;;4.17;80.31;99491.22;5113121;28;20075;-78
2022/02/14 01:52:39;;;;;;;12.48;6.03;;;;;;;4.22;80.16;99502.16;5096960;28;20037;-78
2022/02/14 01:55:05;;;;;;;;;;;;;;;4.26;80.25;99500.06;5113058;28;20114;-80
2022/02/14 01:57:32;;;;;;;11.50;6.15;;;;;;;4.13;80.61;99492.50;5095731;28;19919;-78
2022/02/14 01:59:58;;;;;;;11.98;5.28;;;;;;;4.11;80.61;99497.09;5095650;28;20032;-80
2022/02/14 02:02:24;;;;;;;9.88;5.53;;;;;;;4.09;80.89;99493.78;5097685;28;20019;-79
2022/02/14 02:04:50;;;;;;;;;;;;;;;4.19;81.03;99518.31;5098133;28;20040;-79
2022/02/14 02:07:16;;;;;;;10.27;4.95;;;;;;;4.15;80.73;99495.84;5097148;28;20006;-80
2022/02/14 02:09:43;;;;;;;9.32;5.30;;;;;;;4.16;80.65;99478.16;5114289;28;20389;-79
2022/02/14 02:12:25;;;;;;;9.30;4.90;;;;;;;4.17;80.92;99491.22;5097730;28;20051;-79
2022/02/14 02:14:59;;;;;;;10.68;4.70;;;;;;;4.24;80.71;99478.25;5115623;28;20034;-78
2022/02/14 02:17:35;;;;;;;12.82;5.10;;;;;;;4.28;80.56;99478.75;5097528;28;20063;-79
2022/02/14 02:20:06;;;;;;;12.52;5.93;;;;;;;4.23;80.46;99448.34;5115953;28;20401;-80
2022/02/14 02:22:32;;;;;;;19.02;6.03;;;;;;;4.20;80.36;99438.09;5115481;28;20051;-78
2022/02/14 02:24:58;;;;;;;13.88;6.28;;;;;;;4.20;80.18;99435.44;5114531;28;20534;-79
2022/02/14 02:27:27;;;;;;;10.70;4.57;;;;;;;4.19;80.12;99425.88;5097543;28;20050;-78
2022/02/14 02:30:01;;;;;;;14.50;6.22;;;;;;;4.20;80.21;99426.69;5096799;28;20055;-78
2022/02/14 02:32:29;;;;;;;11.73;5.20;;;;;;;4.11;80.45;99412.59;5114575;28;20103;-79
2022/02/14 02:34:55;;;;;;;11.60;5.40;;;;;;;4.08;80.49;99410.25;5115114;28;20032;-78
2022/02/14 02:37:21;;;;;;;11.65;5.72;;;;;;;4.18;80.36;99426.84;5096771;28;20023;-78
2022/02/14 02:39:47;;;;;;;11.20;5.28;;;;;;;4.21;80.35;99413.34;5114083;28;20602;-79
2022/02/14 02:42:15;;;;;;;10.63;5.82;;;;;;;4.20;80.29;99410.84;5114515;28;20016;-79
2022/02/14 02:44:41;;;;;;;11.07;4.82;;;;;;;4.18;80.15;99397.78;5112879;28;20031;-78
2022/02/14 02:47:09;;;;;;;10.68;4.97;;;;;;;4.13;80.33;99393.94;5110577;28;20015;-77
2022/02/14 02:49:35;;;;;;;8.82;5.32;;;;;;;4.25;80.42;99413.84;5095931;28;20420;-79
2022/02/14 02:52:03;;;;;;;12.73;5.60;;;;;;;4.21;80.39;99401.91;5115567;28;20034;-79
2022/02/14 02:54:28;;;;;;;10.60;4.90;;;;;;;4.18;80.16;99392.50;5112365;28;20027;-79
2022/02/14 02:56:55;;;;;;;10.30;5.07;;;;;;;4.17;80.22;99382.91;5096384;28;20169;-79
2022/02/14 02:59:21;;;;;;;;;;;;;;;4.19;80.27;99394.16;5095580;28;20269;-79
2022/02/14 03:01:46;;;;;;;8.82;4.70;;;;;;;4.13;80.31;99375.47;5112842;28;20440;-78
2022/02/14 03:04:14;;;;;;;14.40;5.85;;;;;;;4.13;80.49;99378.09;5095213;28;20040;-79
2022/02/14 03:06:40;;;;;;;10.90;4.38;;;;;;;4.18;80.31;99381.94;5112373;28;20039;-79
2022/02/14 03:09:07;;;;;;;10.02;4.65;;;;;;;4.00;80.38;99352.06;5113261;28;20087;-78
2022/02/14 03:11:33;;;;;;;9.52;5.20;;;;;;;4.13;80.43;99378.91;5112589;28;20082;-79
2022/02/14 03:13:59;;;;;;;9.48;4.32;;;;;;;4.08;80.32;99365.34;5112981;28;20095;-78
2022/02/14 03:16:25;;;;;;;10.30;4.97;;;;;;;4.03;80.47;99343.88;5112109;28;20247;-77
2022/02/14 03:18:51;;;;;;;10.80;4.88;;;;;;;4.09;80.62;99359.06;5113502;28;20489;-79
2022/02/14 03:21:19;;;;;;;10.93;5.38;;;;;;;3.96;80.60;99348.09;5095136;28;20035;-78
2022/02/14 03:23:46;;;;;;;11.48;5.05;;;;;;;4.06;80.79;99364.69;5094945;28;20058;-78
2022/02/14 03:26:11;;;;;;;13.63;5.05;;;;;;;4.14;80.58;99366.53;5112418;28;20036;-78
2022/02/14 03:28:36;;;;;;;13.25;4.93;;;;;;;4.05;80.55;99341.91;5111902;28;20035;-79
2022/02/14 03:31:02;;;;;;;8.83;4.60;;;;;;;4.20;80.16;99364.09;5095334;28;20027;-79
2022/02/14 03:33:27;;;;;;;12.83;5.07;;;;;;;4.16;79.89;99328.41;5113370;28;20043;-80
2022/02/14 03:35:53;;;;;;;11.70;4.63;;;;;;;4.21;79.81;99323.50;5112471;28;20282;-79
2022/02/14 03:38:18;;;;;;;8.90;5.00;;;;;;;4.13;79.92;99304.97;5112951;28;20023;-79
2022/02/14 03:40:44;;;;;;;12.35;4.68;;;;;;;4.12;79.79;99316.53;5111826;28;20315;-78
2022/02/14 03:43:10;;;;;;;8.02;4.20;;;;;;;4.07;79.71;99302.13;5111895;28;20051;-79
2022/02/14 03:45:38;;;;;;;12.60;5.55;;;;;;;4.18;80.11;99329.09;5111812;28;20111;-78
2022/02/14 03:48:04;;;;;;;8.57;4.80;;;;;;;4.13;79.85;99297.03;5112126;28;20040;-78
2022/02/14 03:50:30;;;;;;;8.93;4.78;;;;;;;4.19;79.90;99306.13;5111779;28;20400;-78
2022/02/14 03:52:56;;;;;;;9.27;4.65;;;;;;;4.22;79.86;99306.66;5095405;28;20031;-79
2022/02/14 03:55:21;;;;;;;9.45;4.45;;;;;;;4.15;80.03;99302.19;5094400;28;20036;-78
2022/02/14 03:57:49;;;;;;;10.77;4.27;;;;;;;3.97;79.96;99268.72;5095327;28;20127;-79
2022/02/14 04:00:16;;;;;;;19.48;5.50;;;;;;;4.13;79.90;99293.56;5096561;28;20031;-79
2022/02/14 04:02:41;;;;;;;9.48;4.40;;;;;;;4.07;79.98;99289.72;5114613;28;20082;-79
2022/02/14 04:05:11;;;;;;;7.72;4.32;;;;;;;4.12;80.06;99303.31;5113959;28;20488;-79
2022/02/14 04:07:37;;;;;;;8.88;3.92;;;;;;;4.08;80.10;99288.75;5096408;28;20035;-78
2022/02/14 04:10:04;;;;;;;13.88;5.07;;;;;;;4.15;80.19;99302.19;5114769;28;20047;-79
2022/02/14 04:12:30;;;;;;;8.32;4.00;;;;;;;4.13;79.90;99297.03;5115820;28;20031;-79
2022/02/14 04:14:55;;;;;;;10.80;5.70;;;;;;;4.17;79.91;99276.44;5114590;28;20172;-78
2022/02/14 04:17:21;;;;;;;7.07;4.10;;;;;;;4.10;79.91;99283.34;5096917;28;20028;-79
2022/02/14 04:19:46;;;;;;;6.77;4.43;;;;;;;4.17;80.04;99301.03;5113999;28;20496;-78
2022/02/14 04:22:11;;;;;;;12.97;4.43;;;;;;;4.19;80.00;99303.50;5096479;28;20038;-79
2022/02/14 04:24:37;;;;;;;10.07;4.57;;;;;;;4.12;79.92;99276.91;5114404;28;20032;-79
2022/02/14 04:27:02;;;;;;;7.87;4.07;;;;;;;4.20;80.17;99291.97;5114486;28;20035;-79
2022/02/14 04:29:28;;;;;;;9.93;3.55;;;;;;;4.21;79.68;99288.31;5114913;28;20654;-79
2022/02/14 04:31:53;;;;;;;8.63;4.37;;;;;;;4.21;79.82;99283.03;5114109;28;20034;-80
2022/02/14 04:34:19;;;;;;;10.47;4.40;;;;;;;4.37;79.71;99282.28;5113801;28;20061;-79
2022/02/14 04:36:49;;;;;;;11.65;4.63;;;;;;;4.31;79.66;99275.00;5096705;28;20130;-79
2022/02/14 04:39:14;;;;;;;8.05;4.25;;;;;;;4.30;79.72;99270.72;5084342;22;20041;-77
2022/02/14 04:41:41;;;;;;;10.35;4.40;;;;;;;4.35;79.68;99284.25;5032249;28;20033;-76
2022/02/14 04:44:06;;;;;;;;;;;;;;;4.38;79.64;99289.25;5032629;28;20235;-77
2022/02/14 04:46:32;;;;;;;11.63;4.25;;;;;;;4.34;79.70;99274.69;5049603;28;19912;-77
2022/02/14 04:48:57;;;;;;;6.80;3.90;;;;;;;4.27;79.74;99263.94;5048679;28;20037;-77
2022/02/14 04:51:25;;;;;;;8.15;4.57;;;;;;;4.29;79.75;99264.59;5048847;28;20074;-77
2022/02/14 04:53:54;;;;;;;7.30;4.03;;;;;;;4.43;79.68;99282.50;5032333;28;20498;-76
2022/02/14 04:56:19;;;;;;;13.57;4.95;;;;;;;4.43;79.56;99271.09;5049982;28;20037;-76
2022/02/14 04:58:45;;;;;;;5.10;3.63;;;;;;;4.40;79.65;99264.31;5049835;28;20029;-77
2022/02/14 05:01:11;;;;;;;11.75;4.10;;;;;;;4.45;79.69;99271.78;5047929;28;20114;-77
2022/02/14 05:03:37;;;;;;;9.40;4.25;;;;;;;4.40;79.65;99263.47;5048823;28;20074;-76
2022/02/14 05:06:02;;;;;;;9.20;4.18;;;;;;;4.39;79.59;99251.25;5048800;28;20440;-77
2022/02/14 05:08:28;;;;;;;8.07;3.92;;;;;;;4.43;79.61;99263.19;5051000;28;20043;-77
2022/02/14 05:10:53;;;;;;;13.55;4.55;;;;;;;4.44;79.46;99259.53;5052406;28;20052;-76
2022/02/14 05:13:19;;;;;;;9.10;4.00;;;;;;;4.44;79.53;99262.19;5053665;28;20407;-77
2022/02/14 05:15:44;;;;;;;8.85;4.30;;;;;;;4.41;79.83;99265.97;5052269;28;20052;-76
2022/02/14 05:18:10;;;;;;;11.10;4.47;;;;;;;4.50;79.83;99279.22;5035560;28;20029;-76
2022/02/14 05:20:35;;;;;;;9.85;4.03;;;;;;;4.44;79.74;99264.81;5051983;28;20021;-77
2022/02/14 05:23:01;;;;;;;10.57;4.07;;;;;;;4.43;79.99;99277.22;5035584;28;20029;-76
2022/02/14 05:25:26;;;;;;;12.67;4.00;;;;;;;4.49;79.73;99269.63;5053299;28;20441;-77
2022/02/14 05:27:52;;;;;;;9.65;4.22;;;;;;;4.45;79.90;99263.84;5052417;28;20107;-77
2022/02/14 05:30:17;;;;;;;7.50;4.40;;;;;;;4.58;79.66;99266.84;5051801;28;20403;-77
2022/02/14 05:32:42;;;;;;;7.50;3.47;;;;;;;4.57;79.75;99269.66;5051907;28;20029;-77
2022/02/14 05:35:08;;;;;;;13.68;5.40;;;;;;;4.49;79.53;99251.94;5052080;28;20037;-77
2022/02/14 05:37:33;;;;;;;12.57;5.20;;;;;;;4.57;79.66;99267.03;5035171;28;20113;-77
2022/02/14 05:39:59;;;;;;;6.43;3.97;;;;;;;4.64;79.57;99263.56;5051698;28;20111;-77
2022/02/14 05:42:26;;;;;;;11.50;4.60;;;;;;;4.62;79.57;99254.97;5051973;28;20600;-76
2022/02/14 05:44:52;;;;;;;11.40;4.28;;;;;;;4.61;79.54;99252.47;5051638;28;20120;-77
2022/02/14 05:47:17;;;;;;;10.45;4.20;;;;;;;4.52;79.66;99249.00;5053548;28;20108;-77
2022/02/14 05:49:42;;;;;;;7.67;4.07;;;;;;;4.53;79.59;99236.59;5053344;28;20418;-76
2022/02/14 05:52:08;;;;;;;10.97;4.37;;;;;;;4.57;79.48;99254.63;5035148;28;20033;-77
2022/02/14 05:54:34;;;;;;;8.23;4.00;;;;;;;4.64;79.67;99260.94;5051303;28;20040;-77
2022/02/14 05:57:00;;;;;;;8.75;4.95;;;;;;;4.62;79.55;99247.03;5052827;28;20083;-76
2022/02/14 05:59:26;;;;;;;8.15;4.03;;;;;;;4.64;79.42;99246.91;5034364;28;20487;-76
2022/02/14 06:01:51;;;;;;;12.82;3.80;;;;;;;4.69;79.42;99239.31;5052567;28;20040;-77
2022/02/14 06:04:16;;;;;;;7.40;3.73;;;;;;;4.68;79.12;99228.88;5052491;28;20041;-77
2022/02/14 06:06:42;;;;;;;11.43;3.83;;;;;;;4.67;79.15;99232.53;5051455;28;20310;-77
2022/02/14 06:09:07;;;;;;;12.53;4.20;;;;;;;4.74;78.90;99241.47;5034150;28;20498;-77
2022/02/14 06:11:33;;;;;;;9.50;3.90;;;;;;;4.69;78.91;99220.78;5052514;28;20037;-77
2022/02/14 06:13:59;;;;;;;9.10;4.03;;;;;;;4.73;79.00;99237.16;5050862;28;20517;-77
2022/02/14 06:16:25;;;;;;;7.65;3.70;;;;;;;4.76;79.05;99227.09;5034533;28;20128;-76
2022/02/14 06:18:50;;;;;;;8.05;4.13;;;;;;;4.73;78.95;99231.84;5034223;28;20041;-77
2022/02/14 06:21:15;;;;;;;10.43;4.57;;;;;;;4.75;78.90;99230.72;5052141;28;20102;-76
2022/02/14 06:23:43;;;;;;;10.10;3.90;;;;;;;4.69;79.05;99219.97;5050940;28;20101;-76
2022/02/14 06:26:09;;;;;;;7.55;3.45;;;;;;;4.76;79.21;99250.06;5050956;28;20029;-76
2022/02/14 06:28:38;;;;;;;7.70;3.97;;;;;;;4.72;79.01;99232.84;5050723;28;20387;-76
2022/02/14 06:31:05;;;;;;;7.57;3.90;;;;;;;4.72;79.42;99233.69;5050755;28;20045;-77
2022/02/14 06:33:31;;;;;;;11.00;3.90;;;;;;;4.83;79.03;99261.66;5052257;28;20037;-77
2022/02/14 06:35:57;;;;;;;8.63;4.55;;;;;;;4.81;79.04;99234.53;5050640;28;20086;-77
2022/02/14 06:38:22;;;;;;;8.70;4.10;;;;;;;4.81;78.92;99234.53;5050667;28;20040;-76
2022/02/14 06:40:47;;;;;;;8.13;3.53;;;;;;;4.83;78.50;99241.31;5033816;28;20029;-76
2022/02/14 06:43:13;;;;;;;5.90;3.53;;;;;;;4.78;78.69;99224.28;5050920;28;20035;-77
2022/02/14 06:45:38;;;;;;;6.57;3.97;;;;;;;4.89;78.64;99236.34;5050445;28;20542;-76
2022/02/14 06:48:04;;;;;;;7.37;4.10;;;;;;;4.88;78.57;99226.78;5050575;28;20432;-77
2022/02/14 06:50:29;;;;;;;14.95;4.43;;;;;;;4.85;78.61;99226.13;5050101;28;20118;-77
2022/02/14 06:52:55;;;;;;;11.82;4.22;;;;;;;4.86;78.51;99237.50;5050634;28;20136;-78
2022/02/14 06:55:20;;;;;;;6.50;3.50;;;;;;;5.03;78.29;99241.84;5051580;28;20112;-77
2022/02/14 06:57:46;;;;;;;;;;;;;;;5.00;78.24;99218.34;5035076;28;20481;-76
2022/02/14 07:00:14;;;;;;;11.63;5.93;;;;;;;4.94;78.34;99207.59;5052201;28;19920;-76
2022/02/14 07:02:40;;;;;;;9.00;4.00;;;;;;;4.95;78.16;99206.63;5052854;28;20064;-77
2022/02/14 07:05:06;;;;;;;;;;;;;;;4.98;78.19;99214.22;5051439;28;20108;-76
2022/02/14 07:07:31;;;;;;;;;;;;;;;4.95;78.17;99204.81;5051466;28;20357;-77
2022/02/14 07:09:57;;;;;;;10.00;4.13;;;;;;;4.99;78.17;99206.13;5050522;28;19914;-77
2022/02/14 07:12:22;;;;;;;10.15;3.88;;;;;;;5.08;77.60;99213.09;5050470;28;20036;-78
2022/02/14 07:14:47;;;;;;;11.53;4.17;;;;;;;5.02;77.60;99187.28;5051580;28;20122;-76
2022/02/14 07:17:13;;;;;;;12.60;3.77;;;;;;;5.12;77.48;99199.53;5051112;28;20028;-77
2022/02/14 07:19:39;;;;;;;6.97;4.17;;;;;;;5.16;77.12;99182.34;5034112;28;20025;-77
2022/02/14 07:22:06;;;;;;;12.90;3.53;;;;;;;5.18;76.91;99180.34;5051700;28;20037;-76
2022/02/14 07:24:31;;;;;;;12.82;4.03;;;;;;;5.18;77.15;99185.66;5049945;28;20486;-77
2022/02/14 07:26:57;;;;;;;14.98;4.90;;;;;;;5.14;77.06;99171.91;5030509;28;20062;-77
2022/02/14 07:29:22;;;;;;;8.07;3.40;;;;;;;5.20;77.03;99179.19;5051311;28;20159;-76
2022/02/14 07:31:48;;;;;;;10.70;3.77;;;;;;;5.22;77.09;99193.09;5054379;28;20135;-76
2022/02/14 07:34:13;;;;;;;8.80;4.13;;;;;;;5.22;76.85;99173.72;5034997;28;20025;-77
2022/02/14 07:36:38;;;;;;;6.47;3.90;;;;;;;5.27;76.69;99176.72;5056560;28;20744;-76
2022/02/14 07:39:04;;;;;;;8.52;3.40;;;;;;;5.33;76.62;99167.25;5051852;28;20041;-76
2022/02/14 07:41:30;;;;;;;11.77;3.78;;;;;;;5.36;76.47;99146.59;5048646;28;20099;-77
2022/02/14 07:43:55;;;;;;;9.13;5.60;;;;;;;5.34;76.28;99153.88;5050933;28;20490;-77
2022/02/14 07:46:21;;;;;;;6.23;3.30;;;;;;;5.41;76.17;99149.56;5050850;28;20127;-77
2022/02/14 07:48:47;;;;;;;9.40;3.97;;;;;;;5.39;76.20;99138.31;5034132;28;20092;-76
2022/02/14 07:51:16;;;;;;;7.40;3.93;;;;;;;5.44;75.97;99135.16;5050609;28;20443;-77
2022/02/14 07:53:43;;;;;;;7.75;3.95;;;;;;;5.52;75.88;99136.97;5050819;28;20029;-76
2022/02/14 07:56:12;;;;;;;8.90;3.05;;;;;;;5.62;75.50;99154.31;5051846;28;20056;-77
2022/02/14 07:58:41;;;;;;;13.82;3.70;;;;;;;5.64;75.53;99136.44;5065871;28;20174;-77
2022/02/14 09:22:03;;;;;;;8.02;3.10;;;;;;;7.89;69.10;98951.97;5034998;27;20757;-77
2022/02/14 09:24:29;;;;;;;;;;;;;;;8.16;68.85;98987.59;5035551;28;20034;-76
2022/02/14 09:26:55;;;;;;;7.78;3.00;;;;;;;8.23;68.54;98969.03;5020342;28;19923;-77
2022/02/14 09:29:21;;;;;;;9.23;3.17;;;;;;;8.30;68.88;98975.25;5014879;28;20117;-77
2022/02/14 09:31:46;;;;;;;5.53;3.23;;;;;;;8.09;68.81;98949.50;5022391;28;20394;-76
2022/02/14 09:34:13;;;;;;;8.13;3.42;;;;;;;8.15;68.88;98966.53;5005553;28;20029;-76
2022/02/14 09:36:38;;;;;;;10.10;3.75;;;;;;;8.14;69.44;98999.44;4998344;28;20503;-76
2022/02/14 09:39:06;;;;;;;9.82;3.13;;;;;;;8.20;69.55;99023.41;5015515;28;20029;-76
2022/02/14 09:41:35;;;;;;;8.82;2.92;;;;;;;8.16;69.42;98984.94;5018532;28;20468;-79
2022/02/14 09:44:01;;;;;;;5.88;2.97;;;;;;;8.14;69.74;99013.53;5008443;28;20041;-77
2022/02/14 09:46:29;;;;;;;10.30;3.40;;;;;;;8.19;69.86;99026.25;5005313;28;20084;-77
2022/02/14 09:48:58;;;;;;;5.70;3.38;;;;;;;8.34;69.69;99045.66;5014726;28;20038;-77
2022/02/14 09:51:23;;;;;;;6.50;3.00;;;;;;;8.23;69.49;99023.03;5001391;28;20022;-77
2022/02/14 09:53:48;;;;;;;7.87;2.90;;;;;;;8.30;69.93;99044.38;5016775;28;20087;-77
2022/02/14 09:56:14;;;;;;;6.63;4.07;;;;;;;8.30;69.88;99043.56;5024130;28;20073;-78
2022/02/14 09:58:39;;;;;;;8.60;3.05;;;;;;;8.35;69.97;99039.31;5008487;28;20025;-78
2022/02/14 10:01:05;;;;;;;6.37;2.90;;;;;;;8.55;69.18;99039.53;5025189;28;20033;-77
2022/02/14 10:03:30;;;;;;;9.03;3.50;;;;;;;8.87;68.41;99051.47;5008465;28;20038;-77
2022/02/14 10:05:58;;;;;;;5.67;2.97;;;;;;;8.96;67.86;98995.44;5025116;28;20037;-77
2022/02/14 10:08:31;;;;;;;13.65;3.30;;;;;;;9.45;67.32;99037.09;5026130;28;20034;-77
2022/02/14 10:11:14;;;;;;;6.95;3.35;;;;;;;9.70;65.41;98883.69;5009200;28;20121;-77
2022/02/14 10:13:42;;;;;;;7.50;2.97;;;;;;;10.26;64.24;98884.34;5009910;28;20037;-78
2022/02/14 10:16:10;;;;;;;9.65;3.15;;;;;;;10.91;63.32;98916.50;5010089;28;20478;-76
2022/02/14 10:18:37;;;;;;;6.85;3.17;;;;;;;10.27;63.11;98766.78;5026493;28;20429;-77
2022/02/14 10:21:26;;;;;;;7.72;3.40;;;;;;;10.13;63.66;98811.31;5009836;28;20060;-78
2022/02/14 10:24:09;;;;;;;6.75;3.20;;;;;;;10.55;64.03;98917.81;5009864;28;20140;-76
2022/02/14 10:26:35;;;;;;;10.57;3.08;;;;;;;10.52;63.20;98817.66;5027292;28;20041;-77
2022/02/14 10:29:14;;;;;;;8.07;3.23;;;;;;;10.30;63.74;98832.25;5009785;28;20021;-77
2022/02/14 10:31:46;;;;;;;7.93;3.55;;;;;;;10.28;64.06;98868.97;5022413;28;20034;-76
2022/02/14 10:34:12;;;;;;;13.82;3.22;;;;;;;10.37;64.07;98886.41;4996315;28;20041;-78
2022/02/14 10:36:44;;;;;;;6.75;2.63;;;;;;;10.63;63.20;98860.72;4996817;28;20381;-77
2022/02/14 10:39:20;;;;;;;5.80;3.15;;;;;;;10.60;63.34;98834.47;5012555;28;20495;-77
2022/02/14 10:41:55;;;;;;;4.68;2.80;;;;;;;10.73;63.30;98855.78;4995442;28;20037;-77
2022/02/14 10:47:19;;;;;;;15.18;3.97;;;;;;;11.49;61.91;98883.63;5012989;28;20045;-77
2022/02/14 10:49:55;;;;;;;4.22;3.17;;;;;;;11.99;61.05;98847.13;4995856;28;20402;-77
2022/02/14 10:52:21;;;;;;;5.75;3.00;;;;;;;12.04;60.15;98769.72;5013078;28;20038;-78
2022/02/14 10:54:47;;;;;;;8.25;3.00;;;;;;;12.02;60.07;98768.31;4995988;28;20133;-76
2022/02/14 10:57:28;;;;;;;7.32;3.33;;;;;;;12.08;59.70;98726.47;5012233;28;20087;-77
2022/02/14 11:00:10;;;;;;;8.40;2.90;;;;;;;12.14;59.77;98758.53;5012935;28;20037;-77
2022/02/14 11:02:37;;;;;;;7.32;3.63;;;;;;;12.50;58.91;98751.53;5013315;28;20056;-77
2022/02/14 11:05:04;;;;;;;9.77;3.55;;;;;;;12.25;59.28;98716.84;5013522;28;20029;-77
2022/02/14 11:07:30;;;;;;;7.40;3.10;;;;;;;12.51;58.84;98721.06;4995692;28;20049;-77
2022/02/14 11:09:59;;;;;;;8.32;2.85;;;;;;;11.79;59.63;98641.38;5011937;28;20041;-77
2022/02/14 11:12:29;;;;;;;4.55;2.83;;;;;;;11.66;60.81;98739.59;5011516;28;20045;-77
2022/02/14 11:14:56;;;;;;;5.63;3.10;;;;;;;11.93;61.17;98836.47;4994999;28;20128;-77
2022/02/14 11:17:26;;;;;;;4.80;2.45;;;;;;;11.77;61.57;98835.94;4993921;28;20076;-79
2022/02/14 11:19:57;;;;;;;8.82;4.05;;;;;;;11.55;61.64;98766.00;5011125;28;20587;-78
2022/02/14 11:22:29;;;;;;;7.25;2.78;;;;;;;11.29;62.89;98847.16;4994641;28;20088;-77
2022/02/14 11:25:17;;;;;;;7.00;2.75;;;;;;;11.48;63.33;98922.88;5011185;28;20033;-77
2022/02/14 11:27:59;;;;;;;6.53;2.45;;;;;;;11.28;63.51;98903.44;5001505;28;20054;-76
2022/02/14 11:30:27;;;;;;;5.97;1.92;;;;;;;11.39;63.76;98919.63;4995167;28;20038;-77
2022/02/14 11:33:23;;;;;;;12.63;2.63;;;;;;;11.86;63.31;98999.59;5012958;28;20029;-77
2022/02/14 11:36:08;;;;;;;18.40;4.55;;;;;;;12.44;63.35;99036.16;5016740;28;20058;-77
2022/02/14 11:38:58;;;;;;;4.78;2.03;;;;;;;12.32;61.84;98914.78;4995080;28;20033;-76
2022/02/14 11:41:41;;;;;;;6.43;2.67;;;;;;;12.11;61.36;98784.91;5011519;28;20026;-77
2022/02/14 11:44:16;;;;;;;5.50;2.17;;;;;;;12.01;62.17;98877.16;4993946;28;20046;-77
2022/02/14 11:46:46;;;;;;;6.10;2.55;;;;;;;12.11;62.12;98898.06;5011141;28;20476;-77
2022/02/14 11:49:11;;;;;;;6.78;3.05;;;;;;;11.99;62.35;98852.47;5011108;28;20034;-76
2022/02/14 11:51:37;;;;;;;2.90;2.23;;;;;;;12.40;61.86;98926.00;5011341;28;20030;-77
2022/02/14 11:54:07;;;;;;;;;;;;;;;12.38;61.10;98812.22;4995374;28;20426;-77
2022/02/14 11:56:39;;;;;;;8.32;3.42;;;;;;;12.04;61.76;98811.72;5012632;28;19971;-76
2022/02/14 11:59:15;;;;;;;17.67;3.25;;;;;;;12.33;62.49;98927.13;5011129;28;20040;-76
2022/02/14 12:01:50;;;;;;;10.25;3.28;;;;;;;12.10;62.10;98837.56;4995418;28;20030;-76
2022/02/14 12:04:41;;;;;;;5.97;2.67;;;;;;;12.35;62.02;98900.97;5012499;28;20045;-76
2022/02/14 12:07:24;;;;;;;5.88;2.70;;;;;;;12.02;62.33;98829.84;5011813;28;20057;-76
2022/02/14 12:09:56;;;;;;;7.88;3.08;;;;;;;11.67;63.11;98826.78;4994140;28;20073;-76
2022/02/14 12:12:46;;;;;;;7.45;2.38;;;;;;;11.51;64.02;98860.19;4994425;28;20030;-76
2022/02/14 12:20:36;;;;;;;5.70;2.20;;;;;;;11.54;65.21;98983.53;5010510;28;20038;-76
2022/02/14 12:23:03;;;;;;;6.40;2.65;;;;;;;11.52;65.43;98974.03;4995082;28;20029;-76
2022/02/14 12:25:28;;;;;;;;;;;;;;;11.40;65.34;98945.34;5011527;28;20061;-76
2022/02/14 12:27:58;;;;;;;3.40;2.58;;;;;;;11.57;65.29;98971.59;4995012;28;19972;-76
2022/02/14 12:30:23;;;;;;;4.35;2.35;;;;;;;11.88;64.70;98988.75;4994008;28;20030;-77
2022/02/14 12:33:00;;;;;;;9.95;3.95;;;;;;;11.93;64.54;98967.53;5011340;28;20026;-74
2022/02/14 12:35:41;;;;;;;4.63;2.53;;;;;;;12.36;63.46;98964.13;5011167;28;20061;-76
2022/02/14 12:38:07;;;;;;;3.80;2.50;;;;;;;12.81;62.41;98931.84;5011166;28;20482;-76
2022/02/14 12:41:06;;;;;;;4.90;2.58;;;;;;;13.23;61.09;98876.56;5011809;28;20109;-76
2022/02/14 12:43:37;;;;;;;6.38;2.80;;;;;;;13.86;59.36;98840.44;5011373;28;20044;-77
2022/02/14 12:46:12;;;;;;;6.80;2.72;;;;;;;12.11;61.57;98693.97;5010791;28;20479;-75
2022/02/14 12:48:58;;;;;;;6.57;2.28;;;;;;;12.07;63.04;98840.69;4994541;28;20041;-77
2022/02/14 12:51:26;;;;;;;6.28;2.72;;;;;;;11.81;64.01;98877.25;4994453;28;20038;-74
2022/02/14 12:54:10;;;;;;;3.95;2.13;;;;;;;11.83;64.95;98939.34;4994700;28;20487;-76
2022/02/14 12:56:38;;;;;;;7.47;2.72;;;;;;;11.53;65.35;98935.63;5010975;28;20042;-76
2022/02/14 12:59:05;;;;;;;5.20;2.58;;;;;;;11.61;65.85;98975.44;4993452;28;20120;-76
2022/02/14 13:01:34;;;;;;;;;;;;;;;11.42;66.30;98977.16;5009357;28;20133;-77
2022/02/14 13:04:01;;;;;;;5.22;2.03;;;;;;;11.34;66.36;98972.06;5010509;28;19975;-76
2022/02/14 13:06:44;;;;;;;4.78;2.67;;;;;;;11.44;66.69;99006.38;4992642;28;20053;-76
2022/02/14 13:09:22;;;;;;;6.35;2.70;;;;;;;11.26;66.67;98975.81;4992260;28;20099;-76
2022/02/14 13:11:49;;;;;;;3.60;2.25;;;;;;;11.20;67.41;99008.69;4992407;28;20491;-75